sensor_id;sensor_type;location;lat;lon;timestamp;P1;durP1;ratioP1;P2;durP2;ratioP2
15502;SDS011;7853;52.186;5.948;2023-03-01T00:03:14;6.67;;;4.46;;
15502;SDS011;7853;52.186;5.948;2023-03-01T00:03:14;5.96;;;4.25;;
15502;SDS011;7853;52.186;5.948;2023-03-01T00:03:14;6.92;;;4.45;;
15502;SDS011;7853;52.186;5.948;2023-03-01T00:04:13;5.73;;;3.89;;
15502;SDS011;7853;52.186;5.948;2023-03-01T00:04:59;6.28;;;4.11;;
15502;SDS011;7853;52.186;5.948;2023-03-01T00:05:46;5.95;;;4.02;;
15502;SDS011;7853;52.186;5.948;2023-03-01T00:06:39;5.79;;;4.25;;
15502;SDS011;7853;52.186;5.948;2023-03-01T00:07:35;6.23;;;4.15;;
15502;SDS011;7853;52.186;5.948;2023-03-01T00:08:34;6.01;;;4.24;;
15502;SDS011;7853;52.186;5.948;2023-03-01T00:09:33;6.79;;;4.26;;
15502;SDS011;7853;52.186;5.948;2023-03-01T00:10:33;6.30;;;4.37;;
15502;SDS011;7853;52.186;5.948;2023-03-01T00:11:33;6.69;;;4.33;;
15502;SDS011;7853;52.186;5.948;2023-03-01T00:12:32;6.96;;;4.69;;
15502;SDS011;7853;52.186;5.948;2023-03-01T00:13:33;7.09;;;4.64;;
15502;SDS011;7853;52.186;5.948;2023-03-01T00:14:32;6.54;;;4.85;;
15502;SDS011;7853;52.186;5.948;2023-03-01T00:15:33;6.27;;;4.47;;
15502;SDS011;7853;52.186;5.948;2023-03-01T00:16:34;7.42;;;4.41;;
15502;SDS011;7853;52.186;5.948;2023-03-01T00:17:33;7.07;;;4.92;;
15502;SDS011;7853;52.186;5.948;2023-03-01T00:18:33;6.46;;;4.48;;
15502;SDS011;7853;52.186;5.948;2023-03-01T00:19:33;6.21;;;4.41;;
15502;SDS011;7853;52.186;5.948;2023-03-01T00:20:33;6.83;;;4.18;;
15502;SDS011;7853;52.186;5.948;2023-03-01T00:21:33;7.68;;;4.78;;
15502;SDS011;7853;52.186;5.948;2023-03-01T00:22:33;6.39;;;4.54;;
15502;SDS011;7853;52.186;5.948;2023-03-01T00:23:33;7.84;;;4.88;;
15502;SDS011;7853;52.186;5.948;2023-03-01T00:24:33;7.38;;;4.45;;
15502;SDS011;7853;52.186;5.948;2023-03-01T00:25:33;7.07;;;4.86;;
15502;SDS011;7853;52.186;5.948;2023-03-01T00:26:33;7.17;;;4.59;;
15502;SDS011;7853;52.186;5.948;2023-03-01T00:27:33;6.58;;;4.69;;
15502;SDS011;7853;52.186;5.948;2023-03-01T00:28:33;7.08;;;4.64;;
15502;SDS011;7853;52.186;5.948;2023-03-01T00:29:33;6.64;;;4.34;;
15502;SDS011;7853;52.186;5.948;2023-03-01T00:30:34;6.52;;;4.59;;
15502;SDS011;7853;52.186;5.948;2023-03-01T00:31:34;7.00;;;4.77;;
15502;SDS011;7853;52.186;5.948;2023-03-01T00:32:34;7.69;;;4.73;;
15502;SDS011;7853;52.186;5.948;2023-03-01T00:33:34;6.91;;;4.89;;
15502;SDS011;7853;52.186;5.948;2023-03-01T00:34:34;6.77;;;4.86;;
15502;SDS011;7853;52.186;5.948;2023-03-01T00:35:34;8.82;;;4.99;;
15502;SDS011;7853;52.186;5.948;2023-03-01T00:36:35;7.21;;;4.40;;
15502;SDS011;7853;52.186;5.948;2023-03-01T00:37:34;6.71;;;4.66;;
15502;SDS011;7853;52.186;5.948;2023-03-01T00:38:34;7.25;;;4.77;;
15502;SDS011;7853;52.186;5.948;2023-03-01T00:39:34;7.98;;;5.02;;
15502;SDS011;7853;52.186;5.948;2023-03-01T00:40:34;6.77;;;4.46;;
15502;SDS011;7853;52.186;5.948;2023-03-01T00:41:34;6.82;;;4.62;;
15502;SDS011;7853;52.186;5.948;2023-03-01T00:42:34;6.81;;;4.87;;
15502;SDS011;7853;52.186;5.948;2023-03-01T00:43:34;6.84;;;5.01;;
15502;SDS011;7853;52.186;5.948;2023-03-01T00:44:34;8.35;;;5.22;;
15502;SDS011;7853;52.186;5.948;2023-03-01T00:45:34;9.18;;;5.65;;
15502;SDS011;7853;52.186;5.948;2023-03-01T00:46:34;7.16;;;5.21;;
15502;SDS011;7853;52.186;5.948;2023-03-01T00:47:34;7.59;;;5.01;;
15502;SDS011;7853;52.186;5.948;2023-03-01T00:48:34;7.26;;;4.88;;
15502;SDS011;7853;52.186;5.948;2023-03-01T00:49:34;7.76;;;4.87;;
15502;SDS011;7853;52.186;5.948;2023-03-01T00:50:34;7.16;;;4.73;;
15502;SDS011;7853;52.186;5.948;2023-03-01T00:51:34;7.82;;;4.86;;
15502;SDS011;7853;52.186;5.948;2023-03-01T00:52:34;6.47;;;4.43;;
15502;SDS011;7853;52.186;5.948;2023-03-01T00:53:34;8.54;;;5.03;;
15502;SDS011;7853;52.186;5.948;2023-03-01T00:54:34;7.65;;;4.63;;
15502;SDS011;7853;52.186;5.948;2023-03-01T00:55:35;6.90;;;4.81;;
15502;SDS011;7853;52.186;5.948;2023-03-01T00:56:34;7.68;;;4.83;;
15502;SDS011;7853;52.186;5.948;2023-03-01T00:57:34;7.83;;;4.78;;
15502;SDS011;7853;52.186;5.948;2023-03-01T00:58:34;6.16;;;4.43;;
15502;SDS011;7853;52.186;5.948;2023-03-01T00:59:34;6.19;;;4.37;;
15502;SDS011;7853;52.186;5.948;2023-03-01T01:00:34;7.32;;;4.28;;
15502;SDS011;7853;52.186;5.948;2023-03-01T01:01:34;6.77;;;4.13;;
15502;SDS011;7853;52.186;5.948;2023-03-01T01:02:34;6.26;;;4.41;;
15502;SDS011;7853;52.186;5.948;2023-03-01T01:03:34;6.42;;;4.45;;
15502;SDS011;7853;52.186;5.948;2023-03-01T01:04:34;6.81;;;4.19;;
15502;SDS011;7853;52.186;5.948;2023-03-01T01:05:34;6.64;;;4.47;;
15502;SDS011;7853;52.186;5.948;2023-03-01T01:06:35;8.27;;;4.50;;
15502;SDS011;7853;52.186;5.948;2023-03-01T01:07:35;6.51;;;3.98;;
15502;SDS011;7853;52.186;5.948;2023-03-01T01:08:34;7.27;;;4.14;;
15502;SDS011;7853;52.186;5.948;2023-03-01T01:09:34;6.06;;;4.21;;
15502;SDS011;7853;52.186;5.948;2023-03-01T01:10:34;5.96;;;3.95;;
15502;SDS011;7853;52.186;5.948;2023-03-01T01:11:35;5.23;;;3.94;;
15502;SDS011;7853;52.186;5.948;2023-03-01T01:12:34;5.85;;;4.16;;
15502;SDS011;7853;52.186;5.948;2023-03-01T01:13:34;5.97;;;4.18;;
15502;SDS011;7853;52.186;5.948;2023-03-01T01:14:34;6.30;;;4.19;;
15502;SDS011;7853;52.186;5.948;2023-03-01T01:15:35;6.15;;;4.12;;
15502;SDS011;7853;52.186;5.948;2023-03-01T01:16:34;6.29;;;4.17;;
15502;SDS011;7853;52.186;5.948;2023-03-01T01:17:34;6.28;;;4.41;;
15502;SDS011;7853;52.186;5.948;2023-03-01T01:18:35;6.95;;;4.02;;
15502;SDS011;7853;52.186;5.948;2023-03-01T01:19:35;5.87;;;3.90;;
15502;SDS011;7853;52.186;5.948;2023-03-01T01:20:35;5.26;;;3.78;;
15502;SDS011;7853;52.186;5.948;2023-03-01T01:21:34;5.74;;;3.84;;
15502;SDS011;7853;52.186;5.948;2023-03-01T01:22:34;4.94;;;3.84;;
15502;SDS011;7853;52.186;5.948;2023-03-01T01:23:35;4.84;;;3.41;;
15502;SDS011;7853;52.186;5.948;2023-03-01T01:24:35;5.15;;;3.72;;
15502;SDS011;7853;52.186;5.948;2023-03-01T01:25:35;4.87;;;3.60;;
15502;SDS011;7853;52.186;5.948;2023-03-01T01:26:34;5.78;;;3.60;;
15502;SDS011;7853;52.186;5.948;2023-03-01T01:27:35;4.73;;;3.46;;
15502;SDS011;7853;52.186;5.948;2023-03-01T01:28:34;4.59;;;3.44;;
15502;SDS011;7853;52.186;5.948;2023-03-01T01:29:34;4.57;;;3.53;;
15502;SDS011;7853;52.186;5.948;2023-03-01T01:30:35;4.56;;;3.59;;
15502;SDS011;7853;52.186;5.948;2023-03-01T01:31:35;4.59;;;3.28;;
15502;SDS011;7853;52.186;5.948;2023-03-01T01:32:34;4.49;;;3.53;;
15502;SDS011;7853;52.186;5.948;2023-03-01T01:33:35;4.81;;;3.50;;
15502;SDS011;7853;52.186;5.948;2023-03-01T01:34:34;4.53;;;3.41;;
15502;SDS011;7853;52.186;5.948;2023-03-01T01:35:34;4.76;;;3.33;;
15502;SDS011;7853;52.186;5.948;2023-03-01T01:36:35;4.48;;;3.43;;
15502;SDS011;7853;52.186;5.948;2023-03-01T01:37:34;4.25;;;3.62;;
15502;SDS011;7853;52.186;5.948;2023-03-01T01:38:35;4.49;;;3.48;;
15502;SDS011;7853;52.186;5.948;2023-03-01T01:39:35;4.16;;;3.34;;
15502;SDS011;7853;52.186;5.948;2023-03-01T01:40:34;5.14;;;3.56;;
15502;SDS011;7853;52.186;5.948;2023-03-01T01:41:34;5.71;;;4.07;;
15502;SDS011;7853;52.186;5.948;2023-03-01T01:42:34;4.81;;;3.80;;
15502;SDS011;7853;52.186;5.948;2023-03-01T01:43:36;5.28;;;3.97;;
15502;SDS011;7853;52.186;5.948;2023-03-01T01:44:35;5.31;;;3.85;;
15502;SDS011;7853;52.186;5.948;2023-03-01T01:45:35;4.35;;;3.53;;
15502;SDS011;7853;52.186;5.948;2023-03-01T01:46:35;4.37;;;3.41;;
15502;SDS011;7853;52.186;5.948;2023-03-01T01:47:34;4.97;;;3.60;;
15502;SDS011;7853;52.186;5.948;2023-03-01T01:48:37;5.22;;;3.64;;
15502;SDS011;7853;52.186;5.948;2023-03-01T01:49:35;4.25;;;3.38;;
15502;SDS011;7853;52.186;5.948;2023-03-01T01:50:35;5.08;;;3.71;;
15502;SDS011;7853;52.186;5.948;2023-03-01T01:51:35;4.68;;;3.54;;
15502;SDS011;7853;52.186;5.948;2023-03-01T01:52:35;4.45;;;3.51;;
15502;SDS011;7853;52.186;5.948;2023-03-01T01:53:35;4.64;;;3.78;;
15502;SDS011;7853;52.186;5.948;2023-03-01T01:54:38;4.85;;;3.35;;
15502;SDS011;7853;52.186;5.948;2023-03-01T01:55:35;5.95;;;3.89;;
15502;SDS011;7853;52.186;5.948;2023-03-01T01:56:35;5.03;;;3.42;;
15502;SDS011;7853;52.186;5.948;2023-03-01T01:57:36;5.09;;;3.56;;
15502;SDS011;7853;52.186;5.948;2023-03-01T01:58:34;4.38;;;3.46;;
15502;SDS011;7853;52.186;5.948;2023-03-01T01:59:35;5.36;;;3.45;;
15502;SDS011;7853;52.186;5.948;2023-03-01T02:00:35;4.94;;;3.49;;
15502;SDS011;7853;52.186;5.948;2023-03-01T02:01:34;4.92;;;3.73;;
15502;SDS011;7853;52.186;5.948;2023-03-01T02:02:35;4.90;;;3.68;;
15502;SDS011;7853;52.186;5.948;2023-03-01T02:03:35;4.13;;;3.22;;
15502;SDS011;7853;52.186;5.948;2023-03-01T02:04:35;4.56;;;3.41;;
15502;SDS011;7853;52.186;5.948;2023-03-01T02:05:36;4.54;;;3.40;;
15502;SDS011;7853;52.186;5.948;2023-03-01T02:06:36;4.75;;;3.32;;
15502;SDS011;7853;52.186;5.948;2023-03-01T02:07:34;4.98;;;3.26;;
15502;SDS011;7853;52.186;5.948;2023-03-01T02:08:35;5.24;;;3.42;;
15502;SDS011;7853;52.186;5.948;2023-03-01T02:09:35;4.56;;;3.37;;
15502;SDS011;7853;52.186;5.948;2023-03-01T02:10:35;4.20;;;3.35;;
15502;SDS011;7853;52.186;5.948;2023-03-01T02:11:35;4.32;;;3.41;;
15502;SDS011;7853;52.186;5.948;2023-03-01T02:12:35;4.55;;;3.49;;
15502;SDS011;7853;52.186;5.948;2023-03-01T02:13:35;4.89;;;3.48;;
15502;SDS011;7853;52.186;5.948;2023-03-01T02:14:34;4.60;;;3.58;;
15502;SDS011;7853;52.186;5.948;2023-03-01T02:15:35;4.83;;;3.21;;
15502;SDS011;7853;52.186;5.948;2023-03-01T02:16:35;4.17;;;3.09;;
15502;SDS011;7853;52.186;5.948;2023-03-01T02:17:35;4.71;;;3.54;;
15502;SDS011;7853;52.186;5.948;2023-03-01T02:18:34;3.76;;;3.29;;
15502;SDS011;7853;52.186;5.948;2023-03-01T02:19:39;4.17;;;3.25;;
15502;SDS011;7853;52.186;5.948;2023-03-01T02:20:36;4.40;;;3.45;;
15502;SDS011;7853;52.186;5.948;2023-03-01T02:21:37;4.27;;;3.25;;
15502;SDS011;7853;52.186;5.948;2023-03-01T02:22:35;5.17;;;3.51;;
15502;SDS011;7853;52.186;5.948;2023-03-01T02:23:35;5.00;;;3.36;;
15502;SDS011;7853;52.186;5.948;2023-03-01T02:24:37;4.76;;;3.51;;
15502;SDS011;7853;52.186;5.948;2023-03-01T02:25:36;4.66;;;3.56;;
15502;SDS011;7853;52.186;5.948;2023-03-01T02:26:35;5.91;;;3.31;;
15502;SDS011;7853;52.186;5.948;2023-03-01T02:27:37;4.92;;;3.47;;
15502;SDS011;7853;52.186;5.948;2023-03-01T02:28:35;5.43;;;3.45;;
15502;SDS011;7853;52.186;5.948;2023-03-01T02:29:35;5.85;;;3.58;;
15502;SDS011;7853;52.186;5.948;2023-03-01T02:30:34;5.24;;;3.65;;
15502;SDS011;7853;52.186;5.948;2023-03-01T02:31:35;5.31;;;3.64;;
15502;SDS011;7853;52.186;5.948;2023-03-01T02:32:34;4.69;;;3.54;;
15502;SDS011;7853;52.186;5.948;2023-03-01T02:33:35;6.05;;;3.85;;
15502;SDS011;7853;52.186;5.948;2023-03-01T02:34:35;7.21;;;3.73;;
15502;SDS011;7853;52.186;5.948;2023-03-01T02:35:35;5.38;;;3.65;;
15502;SDS011;7853;52.186;5.948;2023-03-01T02:36:35;5.25;;;3.75;;
15502;SDS011;7853;52.186;5.948;2023-03-01T02:37:35;4.95;;;3.47;;
15502;SDS011;7853;52.186;5.948;2023-03-01T02:38:34;4.99;;;3.56;;
15502;SDS011;7853;52.186;5.948;2023-03-01T02:39:36;4.04;;;3.35;;
15502;SDS011;7853;52.186;5.948;2023-03-01T02:40:35;4.38;;;3.38;;
15502;SDS011;7853;52.186;5.948;2023-03-01T02:41:35;3.79;;;3.25;;
15502;SDS011;7853;52.186;5.948;2023-03-01T02:42:35;4.01;;;3.02;;
15502;SDS011;7853;52.186;5.948;2023-03-01T02:43:35;5.19;;;3.62;;
15502;SDS011;7853;52.186;5.948;2023-03-01T02:44:35;4.48;;;3.13;;
15502;SDS011;7853;52.186;5.948;2023-03-01T02:45:35;4.87;;;3.15;;
15502;SDS011;7853;52.186;5.948;2023-03-01T02:46:41;5.21;;;3.35;;
15502;SDS011;7853;52.186;5.948;2023-03-01T02:47:35;4.30;;;3.23;;
15502;SDS011;7853;52.186;5.948;2023-03-01T02:48:39;4.12;;;3.15;;
15502;SDS011;7853;52.186;5.948;2023-03-01T02:49:35;3.98;;;3.31;;
15502;SDS011;7853;52.186;5.948;2023-03-01T02:50:42;4.83;;;3.28;;
15502;SDS011;7853;52.186;5.948;2023-03-01T02:51:40;4.04;;;3.24;;
15502;SDS011;7853;52.186;5.948;2023-03-01T02:52:37;4.38;;;3.25;;
15502;SDS011;7853;52.186;5.948;2023-03-01T02:53:37;4.94;;;3.30;;
15502;SDS011;7853;52.186;5.948;2023-03-01T02:54:36;5.02;;;3.22;;
15502;SDS011;7853;52.186;5.948;2023-03-01T02:55:34;4.55;;;3.51;;
15502;SDS011;7853;52.186;5.948;2023-03-01T02:56:35;4.84;;;3.54;;
15502;SDS011;7853;52.186;5.948;2023-03-01T02:57:35;4.59;;;3.27;;
15502;SDS011;7853;52.186;5.948;2023-03-01T02:58:35;4.34;;;3.29;;
15502;SDS011;7853;52.186;5.948;2023-03-01T02:59:35;4.38;;;3.36;;
15502;SDS011;7853;52.186;5.948;2023-03-01T03:00:36;4.69;;;3.34;;
15502;SDS011;7853;52.186;5.948;2023-03-01T03:01:35;4.59;;;3.41;;
15502;SDS011;7853;52.186;5.948;2023-03-01T03:02:35;4.87;;;3.40;;
15502;SDS011;7853;52.186;5.948;2023-03-01T03:03:34;5.19;;;3.54;;
15502;SDS011;7853;52.186;5.948;2023-03-01T03:04:35;4.30;;;3.17;;
15502;SDS011;7853;52.186;5.948;2023-03-01T03:05:35;5.11;;;3.34;;
15502;SDS011;7853;52.186;5.948;2023-03-01T03:06:35;3.86;;;3.11;;
15502;SDS011;7853;52.186;5.948;2023-03-01T03:07:35;4.30;;;3.27;;
15502;SDS011;7853;52.186;5.948;2023-03-01T03:08:35;3.71;;;3.15;;
15502;SDS011;7853;52.186;5.948;2023-03-01T03:09:34;3.86;;;3.05;;
15502;SDS011;7853;52.186;5.948;2023-03-01T03:10:35;4.31;;;3.42;;
15502;SDS011;7853;52.186;5.948;2023-03-01T03:11:35;4.60;;;3.28;;
15502;SDS011;7853;52.186;5.948;2023-03-01T03:12:34;4.19;;;3.36;;
15502;SDS011;7853;52.186;5.948;2023-03-01T03:13:35;4.71;;;3.28;;
15502;SDS011;7853;52.186;5.948;2023-03-01T03:14:34;5.69;;;3.35;;
15502;SDS011;7853;52.186;5.948;2023-03-01T03:15:35;4.51;;;3.42;;
15502;SDS011;7853;52.186;5.948;2023-03-01T03:16:35;4.56;;;3.22;;
15502;SDS011;7853;52.186;5.948;2023-03-01T03:17:35;4.23;;;3.27;;
15502;SDS011;7853;52.186;5.948;2023-03-01T03:18:35;3.42;;;2.91;;
15502;SDS011;7853;52.186;5.948;2023-03-01T03:19:35;4.18;;;3.14;;
15502;SDS011;7853;52.186;5.948;2023-03-01T03:20:35;4.74;;;3.32;;
15502;SDS011;7853;52.186;5.948;2023-03-01T03:21:35;4.11;;;3.15;;
15502;SDS011;7853;52.186;5.948;2023-03-01T03:22:35;4.12;;;3.13;;
15502;SDS011;7853;52.186;5.948;2023-03-01T03:23:34;4.72;;;3.11;;
15502;SDS011;7853;52.186;5.948;2023-03-01T03:24:35;4.54;;;3.25;;
15502;SDS011;7853;52.186;5.948;2023-03-01T03:25:35;4.36;;;3.33;;
15502;SDS011;7853;52.186;5.948;2023-03-01T03:26:35;4.20;;;3.19;;
15502;SDS011;7853;52.186;5.948;2023-03-01T03:27:35;4.41;;;3.25;;
15502;SDS011;7853;52.186;5.948;2023-03-01T03:28:35;3.96;;;3.37;;
15502;SDS011;7853;52.186;5.948;2023-03-01T03:29:35;3.88;;;3.07;;
15502;SDS011;7853;52.186;5.948;2023-03-01T03:30:35;4.45;;;2.98;;
15502;SDS011;7853;52.186;5.948;2023-03-01T03:31:35;4.41;;;2.93;;
15502;SDS011;7853;52.186;5.948;2023-03-01T03:32:35;4.65;;;2.88;;
15502;SDS011;7853;52.186;5.948;2023-03-01T03:33:35;3.91;;;2.74;;
15502;SDS011;7853;52.186;5.948;2023-03-01T03:34:35;3.92;;;3.01;;
15502;SDS011;7853;52.186;5.948;2023-03-01T03:35:38;3.35;;;2.92;;
15502;SDS011;7853;52.186;5.948;2023-03-01T03:36:35;3.31;;;2.92;;
15502;SDS011;7853;52.186;5.948;2023-03-01T03:37:35;5.03;;;3.02;;
15502;SDS011;7853;52.186;5.948;2023-03-01T03:38:35;4.99;;;3.10;;
15502;SDS011;7853;52.186;5.948;2023-03-01T03:39:35;4.17;;;2.93;;
15502;SDS011;7853;52.186;5.948;2023-03-01T03:40:35;3.91;;;3.09;;
15502;SDS011;7853;52.186;5.948;2023-03-01T03:41:35;4.32;;;3.02;;
15502;SDS011;7853;52.186;5.948;2023-03-01T03:42:34;3.71;;;3.06;;
15502;SDS011;7853;52.186;5.948;2023-03-01T03:43:35;4.30;;;2.94;;
15502;SDS011;7853;52.186;5.948;2023-03-01T03:44:35;3.44;;;3.01;;
15502;SDS011;7853;52.186;5.948;2023-03-01T03:45:35;3.51;;;3.01;;
15502;SDS011;7853;52.186;5.948;2023-03-01T03:46:34;4.02;;;2.84;;
15502;SDS011;7853;52.186;5.948;2023-03-01T03:47:35;4.06;;;3.07;;
15502;SDS011;7853;52.186;5.948;2023-03-01T03:48:35;4.86;;;3.35;;
15502;SDS011;7853;52.186;5.948;2023-03-01T03:49:35;3.80;;;2.98;;
15502;SDS011;7853;52.186;5.948;2023-03-01T03:50:35;3.93;;;2.99;;
15502;SDS011;7853;52.186;5.948;2023-03-01T03:51:35;3.78;;;2.96;;
15502;SDS011;7853;52.186;5.948;2023-03-01T03:52:35;4.05;;;3.03;;
15502;SDS011;7853;52.186;5.948;2023-03-01T03:53:35;4.31;;;3.03;;
15502;SDS011;7853;52.186;5.948;2023-03-01T03:54:42;5.08;;;3.05;;
15502;SDS011;7853;52.186;5.948;2023-03-01T03:55:31;5.10;;;3.02;;
15502;SDS011;7853;52.186;5.948;2023-03-01T03:56:33;3.83;;;2.94;;
15502;SDS011;7853;52.186;5.948;2023-03-01T03:57:34;3.76;;;3.15;;
15502;SDS011;7853;52.186;5.948;2023-03-01T03:58:34;4.23;;;3.18;;
15502;SDS011;7853;52.186;5.948;2023-03-01T03:59:34;4.36;;;3.45;;
15502;SDS011;7853;52.186;5.948;2023-03-01T04:00:35;4.38;;;3.29;;
15502;SDS011;7853;52.186;5.948;2023-03-01T04:01:35;4.20;;;3.30;;
15502;SDS011;7853;52.186;5.948;2023-03-01T04:02:35;3.60;;;2.95;;
15502;SDS011;7853;52.186;5.948;2023-03-01T04:03:35;3.98;;;3.01;;
15502;SDS011;7853;52.186;5.948;2023-03-01T04:04:35;3.46;;;2.84;;
15502;SDS011;7853;52.186;5.948;2023-03-01T04:05:35;4.21;;;3.08;;
15502;SDS011;7853;52.186;5.948;2023-03-01T04:06:35;4.27;;;3.27;;
15502;SDS011;7853;52.186;5.948;2023-03-01T04:07:35;4.80;;;3.41;;
15502;SDS011;7853;52.186;5.948;2023-03-01T04:08:35;4.57;;;3.19;;
15502;SDS011;7853;52.186;5.948;2023-03-01T04:09:35;3.84;;;3.14;;
15502;SDS011;7853;52.186;5.948;2023-03-01T04:10:35;4.10;;;3.11;;
15502;SDS011;7853;52.186;5.948;2023-03-01T04:11:35;4.32;;;3.19;;
15502;SDS011;7853;52.186;5.948;2023-03-01T04:12:35;4.01;;;3.19;;
15502;SDS011;7853;52.186;5.948;2023-03-01T04:15:51;3.94;;;3.16;;
15502;SDS011;7853;52.186;5.948;2023-03-01T04:16:50;3.86;;;3.19;;
15502;SDS011;7853;52.186;5.948;2023-03-01T04:17:44;4.29;;;3.13;;
15502;SDS011;7853;52.186;5.948;2023-03-01T04:18:38;4.02;;;3.17;;
15502;SDS011;7853;52.186;5.948;2023-03-01T04:19:36;4.70;;;3.27;;
15502;SDS011;7853;52.186;5.948;2023-03-01T04:20:35;4.38;;;3.14;;
15502;SDS011;7853;52.186;5.948;2023-03-01T04:21:34;4.30;;;3.18;;
15502;SDS011;7853;52.186;5.948;2023-03-01T04:22:34;3.56;;;2.97;;
15502;SDS011;7853;52.186;5.948;2023-03-01T04:23:34;4.89;;;3.33;;
15502;SDS011;7853;52.186;5.948;2023-03-01T04:24:34;4.42;;;3.12;;
15502;SDS011;7853;52.186;5.948;2023-03-01T04:25:34;4.07;;;3.12;;
15502;SDS011;7853;52.186;5.948;2023-03-01T04:26:34;4.28;;;3.07;;
15502;SDS011;7853;52.186;5.948;2023-03-01T04:27:34;4.61;;;3.30;;
15502;SDS011;7853;52.186;5.948;2023-03-01T04:28:34;4.90;;;3.29;;
15502;SDS011;7853;52.186;5.948;2023-03-01T04:29:34;4.69;;;3.32;;
15502;SDS011;7853;52.186;5.948;2023-03-01T04:30:34;4.11;;;3.04;;
15502;SDS011;7853;52.186;5.948;2023-03-01T04:31:34;3.89;;;3.10;;
15502;SDS011;7853;52.186;5.948;2023-03-01T04:32:34;3.64;;;2.92;;
15502;SDS011;7853;52.186;5.948;2023-03-01T04:33:34;3.96;;;3.17;;
15502;SDS011;7853;52.186;5.948;2023-03-01T04:34:34;3.50;;;3.07;;
15502;SDS011;7853;52.186;5.948;2023-03-01T04:35:35;3.69;;;3.28;;
15502;SDS011;7853;52.186;5.948;2023-03-01T04:36:34;4.39;;;3.32;;
15502;SDS011;7853;52.186;5.948;2023-03-01T04:37:34;4.20;;;3.20;;
15502;SDS011;7853;52.186;5.948;2023-03-01T04:38:34;3.85;;;3.14;;
15502;SDS011;7853;52.186;5.948;2023-03-01T04:39:34;4.46;;;3.10;;
15502;SDS011;7853;52.186;5.948;2023-03-01T04:40:34;4.01;;;3.24;;
15502;SDS011;7853;52.186;5.948;2023-03-01T04:41:34;3.78;;;3.09;;
15502;SDS011;7853;52.186;5.948;2023-03-01T04:42:34;4.37;;;3.20;;
15502;SDS011;7853;52.186;5.948;2023-03-01T04:43:34;4.41;;;3.09;;
15502;SDS011;7853;52.186;5.948;2023-03-01T04:44:34;4.32;;;3.01;;
15502;SDS011;7853;52.186;5.948;2023-03-01T04:45:34;4.63;;;3.45;;
15502;SDS011;7853;52.186;5.948;2023-03-01T04:46:34;4.24;;;3.37;;
15502;SDS011;7853;52.186;5.948;2023-03-01T04:47:34;5.18;;;3.32;;
15502;SDS011;7853;52.186;5.948;2023-03-01T04:48:34;4.34;;;3.32;;
15502;SDS011;7853;52.186;5.948;2023-03-01T04:49:34;4.08;;;3.22;;
15502;SDS011;7853;52.186;5.948;2023-03-01T04:50:34;4.55;;;3.47;;
15502;SDS011;7853;52.186;5.948;2023-03-01T04:51:34;4.71;;;3.42;;
15502;SDS011;7853;52.186;5.948;2023-03-01T04:52:34;5.22;;;3.52;;
15502;SDS011;7853;52.186;5.948;2023-03-01T04:53:34;4.43;;;3.29;;
15502;SDS011;7853;52.186;5.948;2023-03-01T04:54:35;4.41;;;3.40;;
15502;SDS011;7853;52.186;5.948;2023-03-01T04:55:34;4.21;;;3.36;;
15502;SDS011;7853;52.186;5.948;2023-03-01T04:56:34;4.34;;;3.31;;
15502;SDS011;7853;52.186;5.948;2023-03-01T04:57:34;3.93;;;3.25;;
15502;SDS011;7853;52.186;5.948;2023-03-01T04:58:34;5.26;;;3.51;;
15502;SDS011;7853;52.186;5.948;2023-03-01T04:59:34;3.88;;;2.96;;
15502;SDS011;7853;52.186;5.948;2023-03-01T05:00:34;4.14;;;3.17;;
15502;SDS011;7853;52.186;5.948;2023-03-01T05:01:34;3.88;;;3.11;;
15502;SDS011;7853;52.186;5.948;2023-03-01T05:02:34;4.14;;;3.10;;
15502;SDS011;7853;52.186;5.948;2023-03-01T05:03:34;4.77;;;3.17;;
15502;SDS011;7853;52.186;5.948;2023-03-01T05:04:34;4.35;;;3.13;;
15502;SDS011;7853;52.186;5.948;2023-03-01T05:05:35;4.42;;;3.41;;
15502;SDS011;7853;52.186;5.948;2023-03-01T05:06:34;4.36;;;3.38;;
15502;SDS011;7853;52.186;5.948;2023-03-01T05:07:34;4.90;;;3.21;;
15502;SDS011;7853;52.186;5.948;2023-03-01T05:08:34;4.76;;;3.32;;
15502;SDS011;7853;52.186;5.948;2023-03-01T05:09:34;4.27;;;3.16;;
15502;SDS011;7853;52.186;5.948;2023-03-01T05:10:35;5.06;;;3.22;;
15502;SDS011;7853;52.186;5.948;2023-03-01T05:11:34;5.10;;;3.43;;
15502;SDS011;7853;52.186;5.948;2023-03-01T05:12:34;5.33;;;3.40;;
15502;SDS011;7853;52.186;5.948;2023-03-01T05:13:35;4.87;;;3.34;;
15502;SDS011;7853;52.186;5.948;2023-03-01T05:14:34;4.61;;;3.43;;
15502;SDS011;7853;52.186;5.948;2023-03-01T05:15:34;4.87;;;3.08;;
15502;SDS011;7853;52.186;5.948;2023-03-01T05:16:35;4.82;;;3.35;;
15502;SDS011;7853;52.186;5.948;2023-03-01T05:17:35;5.88;;;3.56;;
15502;SDS011;7853;52.186;5.948;2023-03-01T05:18:34;4.94;;;3.30;;
15502;SDS011;7853;52.186;5.948;2023-03-01T05:19:34;4.92;;;3.59;;
15502;SDS011;7853;52.186;5.948;2023-03-01T05:20:34;4.72;;;3.47;;
15502;SDS011;7853;52.186;5.948;2023-03-01T05:21:34;4.73;;;3.25;;
15502;SDS011;7853;52.186;5.948;2023-03-01T05:22:35;4.59;;;3.60;;
15502;SDS011;7853;52.186;5.948;2023-03-01T05:23:34;5.02;;;3.88;;
15502;SDS011;7853;52.186;5.948;2023-03-01T05:24:35;4.74;;;3.58;;
15502;SDS011;7853;52.186;5.948;2023-03-01T05:25:34;5.55;;;3.71;;
15502;SDS011;7853;52.186;5.948;2023-03-01T05:26:34;5.05;;;3.66;;
15502;SDS011;7853;52.186;5.948;2023-03-01T05:27:35;5.02;;;3.66;;
15502;SDS011;7853;52.186;5.948;2023-03-01T05:28:35;5.74;;;3.79;;
15502;SDS011;7853;52.186;5.948;2023-03-01T05:29:34;6.05;;;3.65;;
15502;SDS011;7853;52.186;5.948;2023-03-01T05:30:34;6.07;;;3.79;;
15502;SDS011;7853;52.186;5.948;2023-03-01T05:31:34;5.69;;;3.89;;
15502;SDS011;7853;52.186;5.948;2023-03-01T05:32:35;6.41;;;4.06;;
15502;SDS011;7853;52.186;5.948;2023-03-01T05:33:35;6.06;;;4.03;;
15502;SDS011;7853;52.186;5.948;2023-03-01T05:34:35;5.52;;;3.83;;
15502;SDS011;7853;52.186;5.948;2023-03-01T05:35:34;5.16;;;3.87;;
15502;SDS011;7853;52.186;5.948;2023-03-01T05:36:34;6.31;;;4.15;;
15502;SDS011;7853;52.186;5.948;2023-03-01T05:37:34;6.16;;;3.95;;
15502;SDS011;7853;52.186;5.948;2023-03-01T05:38:35;5.74;;;3.95;;
15502;SDS011;7853;52.186;5.948;2023-03-01T05:39:35;5.72;;;3.91;;
15502;SDS011;7853;52.186;5.948;2023-03-01T05:40:34;5.98;;;3.69;;
15502;SDS011;7853;52.186;5.948;2023-03-01T05:41:34;5.40;;;3.93;;
15502;SDS011;7853;52.186;5.948;2023-03-01T05:42:34;5.25;;;3.71;;
15502;SDS011;7853;52.186;5.948;2023-03-01T05:43:34;5.77;;;4.07;;
15502;SDS011;7853;52.186;5.948;2023-03-01T05:44:35;5.40;;;3.82;;
15502;SDS011;7853;52.186;5.948;2023-03-01T05:45:35;5.23;;;3.81;;
15502;SDS011;7853;52.186;5.948;2023-03-01T05:46:34;5.65;;;3.75;;
15502;SDS011;7853;52.186;5.948;2023-03-01T05:47:34;5.15;;;3.87;;
15502;SDS011;7853;52.186;5.948;2023-03-01T05:48:35;5.39;;;3.75;;
15502;SDS011;7853;52.186;5.948;2023-03-01T05:49:35;5.26;;;3.97;;
15502;SDS011;7853;52.186;5.948;2023-03-01T05:50:35;5.56;;;4.14;;
15502;SDS011;7853;52.186;5.948;2023-03-01T05:51:35;6.48;;;4.03;;
15502;SDS011;7853;52.186;5.948;2023-03-01T05:52:34;5.16;;;3.79;;
15502;SDS011;7853;52.186;5.948;2023-03-01T05:53:35;5.74;;;3.96;;
15502;SDS011;7853;52.186;5.948;2023-03-01T05:54:35;5.29;;;3.55;;
15502;SDS011;7853;52.186;5.948;2023-03-01T05:55:35;5.68;;;3.86;;
15502;SDS011;7853;52.186;5.948;2023-03-01T05:56:35;6.08;;;3.71;;
15502;SDS011;7853;52.186;5.948;2023-03-01T05:57:35;5.28;;;3.85;;
15502;SDS011;7853;52.186;5.948;2023-03-01T05:58:35;5.39;;;3.89;;
15502;SDS011;7853;52.186;5.948;2023-03-01T05:59:35;5.23;;;3.69;;
15502;SDS011;7853;52.186;5.948;2023-03-01T06:00:35;5.21;;;3.68;;
15502;SDS011;7853;52.186;5.948;2023-03-01T06:01:35;6.14;;;3.84;;
15502;SDS011;7853;52.186;5.948;2023-03-01T06:02:35;4.93;;;3.78;;
15502;SDS011;7853;52.186;5.948;2023-03-01T06:03:35;4.78;;;3.86;;
15502;SDS011;7853;52.186;5.948;2023-03-01T06:04:35;5.19;;;3.82;;
15502;SDS011;7853;52.186;5.948;2023-03-01T06:05:35;4.91;;;3.96;;
15502;SDS011;7853;52.186;5.948;2023-03-01T06:06:35;6.88;;;4.01;;
15502;SDS011;7853;52.186;5.948;2023-03-01T06:07:35;5.08;;;3.53;;
15502;SDS011;7853;52.186;5.948;2023-03-01T06:08:34;5.11;;;3.85;;